createdAt,value
2018-12-12T00:01:09.604Z,9.30
2018-12-12T00:03:37.776Z,13.40
2018-12-12T00:06:05.960Z,11.73
2018-12-12T00:08:34.302Z,11.83
2018-12-12T00:11:02.571Z,12.87
2018-12-12T00:13:30.835Z,11.40
2018-12-12T00:15:59.199Z,12.73
2018-12-12T00:18:27.440Z,10.97
2018-12-12T00:20:55.636Z,10.17
2018-12-12T00:23:23.916Z,11.03
2018-12-12T00:25:52.064Z,10.90
2018-12-12T00:28:20.180Z,11.43
2018-12-12T00:30:48.407Z,12.23
2018-12-12T00:33:16.859Z,10.87
2018-12-12T00:35:45.081Z,11.07
2018-12-12T00:38:13.207Z,9.70
2018-12-12T00:40:41.463Z,10.70
2018-12-12T00:43:09.825Z,11.73
2018-12-12T00:45:38.128Z,11.43
2018-12-12T00:48:08.187Z,11.87
2018-12-12T00:50:36.405Z,16.03
2018-12-12T00:53:04.533Z,12.87
2018-12-12T00:55:32.688Z,14.57
2018-12-12T00:58:01.236Z,12.67
2018-12-12T01:00:29.384Z,14.40
2018-12-12T01:02:57.661Z,9.87
2018-12-12T01:05:25.845Z,11.23
2018-12-12T01:07:54.043Z,13.27
2018-12-12T01:10:22.248Z,12.77
2018-12-12T01:12:50.380Z,14.10
2018-12-12T01:15:18.635Z,10.97
2018-12-12T01:17:46.773Z,11.10
2018-12-12T01:20:15.617Z,12.30
2018-12-12T01:22:43.807Z,12.07
2018-12-12T01:25:12.340Z,11.43
2018-12-12T01:27:40.483Z,10.63
2018-12-12T01:30:08.772Z,13.50
2018-12-12T01:32:36.884Z,14.57
2018-12-12T01:35:05.596Z,15.17
2018-12-12T01:37:33.762Z,15.83
2018-12-12T01:40:01.919Z,11.07
2018-12-12T01:42:30.062Z,15.37
2018-12-12T01:44:58.267Z,13.43
2018-12-12T01:47:26.491Z,13.43
2018-12-12T01:49:54.661Z,11.30
2018-12-12T01:52:22.788Z,11.67
2018-12-12T01:54:54.033Z,11.17
2018-12-12T01:57:22.205Z,9.70
2018-12-12T01:59:50.380Z,8.07
2018-12-12T02:02:18.511Z,8.77
2018-12-12T02:04:46.636Z,8.13
2018-12-12T02:07:15.173Z,10.57
2018-12-12T02:09:43.322Z,11.30
2018-12-12T02:12:11.453Z,10.40
2018-12-12T02:14:39.629Z,10.97
2018-12-12T02:17:07.763Z,11.97
2018-12-12T02:19:36.085Z,8.93
2018-12-12T02:22:04.321Z,12.60
2018-12-12T02:24:32.520Z,13.80
2018-12-12T02:27:00.668Z,14.37
2018-12-12T02:29:29.184Z,13.93
2018-12-12T02:31:57.356Z,11.10
2018-12-12T02:34:25.504Z,10.83
2018-12-12T02:36:53.687Z,11.50
2018-12-12T02:39:21.935Z,13.53
2018-12-12T02:41:50.119Z,17.13
2018-12-12T02:44:18.289Z,16.07
2018-12-12T02:46:46.632Z,13.07
2018-12-12T02:49:14.755Z,20.60
2018-12-12T02:51:42.889Z,20.73
2018-12-12T02:54:11.349Z,19.23
2018-12-12T02:56:39.491Z,19.73
2018-12-12T02:59:07.637Z,18.20
2018-12-12T03:01:35.868Z,18.20
2018-12-12T03:04:04.927Z,14.60
2018-12-12T03:06:33.080Z,14.93
2018-12-12T03:09:01.304Z,14.10
2018-12-12T03:11:29.568Z,12.20
2018-12-12T03:13:57.745Z,12.77
2018-12-12T03:16:26.022Z,11.77
2018-12-12T03:18:54.234Z,11.87
2018-12-12T03:21:22.591Z,11.77
2018-12-12T03:23:50.731Z,11.80
2018-12-12T03:26:18.930Z,11.67
2018-12-12T03:28:47.138Z,9.77
2018-12-12T03:31:15.385Z,11.80
2018-12-12T03:33:43.579Z,11.67
2018-12-12T03:36:11.732Z,11.70
2018-12-12T03:38:39.980Z,10.77
2018-12-12T03:41:08.144Z,9.20
2018-12-12T03:43:36.423Z,13.17
2018-12-12T03:46:04.642Z,10.30
2018-12-12T03:48:32.816Z,11.70
2018-12-12T03:51:00.957Z,9.37
2018-12-12T03:53:29.181Z,13.43
2018-12-12T03:55:57.352Z,11.03
2018-12-12T03:58:25.541Z,14.57
2018-12-12T04:00:53.689Z,12.33
2018-12-12T04:03:21.869Z,11.67
2018-12-12T04:05:50.028Z,12.10
2018-12-12T04:08:18.156Z,11.67
2018-12-12T04:10:46.331Z,16.13
2018-12-12T04:13:14.540Z,12.93
2018-12-12T04:15:42.707Z,12.93
2018-12-12T04:18:10.942Z,16.00
2018-12-12T04:20:39.076Z,12.67
2018-12-12T04:23:07.244Z,12.70
2018-12-12T04:25:35.381Z,12.57
2018-12-12T04:28:03.561Z,13.50
2018-12-12T04:30:31.749Z,12.27
2018-12-12T04:32:59.994Z,11.93
2018-12-12T04:35:28.151Z,14.93
2018-12-12T04:37:56.308Z,16.20
2018-12-12T04:40:24.435Z,13.93
2018-12-12T04:42:52.600Z,14.70
2018-12-12T04:45:20.785Z,16.33
2018-12-12T04:47:50.890Z,12.87
2018-12-12T04:50:19.160Z,13.70
2018-12-12T04:52:47.296Z,18.20
2018-12-12T04:55:15.469Z,13.30
2018-12-12T04:57:44.855Z,13.00
2018-12-12T05:00:13.299Z,14.33
2018-12-12T05:02:41.809Z,12.77
2018-12-12T05:05:10.035Z,16.43
2018-12-12T05:07:38.452Z,15.13
2018-12-12T05:10:06.868Z,14.13
2018-12-12T05:12:38.170Z,15.63
2018-12-12T05:15:06.445Z,13.33
2018-12-12T05:17:34.752Z,13.67
2018-12-12T05:20:02.983Z,16.23
2018-12-12T05:22:31.256Z,12.13
2018-12-12T05:24:59.437Z,15.33
2018-12-12T05:27:27.666Z,13.87
2018-12-12T05:29:55.832Z,14.77
2018-12-12T05:32:24.062Z,12.70
2018-12-12T05:34:52.182Z,14.03
2018-12-12T05:37:20.335Z,16.17
2018-12-12T05:39:48.508Z,18.60
2018-12-12T05:42:16.756Z,14.90
2018-12-12T05:44:44.898Z,15.50
2018-12-12T05:47:13.104Z,12.63
2018-12-12T05:49:41.309Z,13.47
2018-12-12T05:52:09.463Z,12.87
2018-12-12T05:54:37.597Z,12.50
2018-12-12T05:57:05.850Z,11.60
2018-12-12T05:59:34.091Z,13.37
2018-12-12T06:02:02.251Z,16.03
2018-12-12T06:04:30.408Z,14.90
2018-12-12T06:06:58.544Z,16.20
2018-12-12T06:09:26.828Z,14.20
2018-12-12T06:11:55.120Z,14.53
2018-12-12T06:14:23.406Z,13.53
2018-12-12T06:16:51.555Z,14.53
2018-12-12T06:19:20.059Z,13.27
2018-12-12T06:21:48.376Z,16.00
2018-12-12T06:24:16.573Z,13.80
2018-12-12T06:26:44.718Z,16.03
2018-12-12T06:29:12.841Z,16.43
2018-12-12T06:31:40.989Z,13.20
2018-12-12T06:34:09.163Z,13.80
2018-12-12T06:36:37.309Z,13.30
2018-12-12T06:39:07.637Z,13.73
2018-12-12T06:41:36.132Z,14.50
2018-12-12T06:44:04.708Z,14.90
2018-12-12T06:46:32.831Z,15.07
2018-12-12T06:49:01.095Z,16.57
2018-12-12T06:51:29.248Z,14.90
2018-12-12T06:53:57.600Z,13.97
2018-12-12T06:56:25.961Z,16.03
2018-12-12T06:58:54.167Z,15.60
2018-12-12T07:01:22.528Z,15.57
2018-12-12T07:03:50.736Z,14.90
2018-12-12T07:06:18.943Z,17.30
2018-12-12T07:08:47.072Z,14.87
2018-12-12T07:11:15.248Z,18.67
2018-12-12T07:13:43.381Z,15.93
2018-12-12T07:16:11.600Z,13.77
2018-12-12T07:18:39.719Z,16.73
2018-12-12T07:21:07.946Z,15.83
2018-12-12T07:23:36.060Z,17.00
2018-12-12T07:26:04.347Z,14.83
2018-12-12T07:28:32.474Z,14.40
2018-12-12T07:31:00.662Z,17.47
2018-12-12T07:33:28.889Z,15.57
2018-12-12T07:35:59.653Z,13.33
2018-12-12T07:38:27.291Z,17.50
2018-12-12T07:40:55.658Z,19.30
2018-12-12T07:43:23.764Z,21.67
2018-12-12T07:45:51.996Z,18.90
2018-12-12T07:48:20.142Z,14.27
2018-12-12T07:50:48.341Z,16.23
2018-12-12T07:53:16.467Z,18.13
2018-12-12T07:55:44.736Z,14.20
2018-12-12T07:58:12.883Z,16.10
2018-12-12T08:00:41.011Z,14.50
2018-12-12T08:03:09.145Z,16.63
2018-12-12T08:05:37.437Z,16.47
2018-12-12T08:08:05.676Z,16.93
2018-12-12T08:10:34.349Z,13.63
2018-12-12T08:13:02.546Z,13.03
2018-12-12T08:15:30.816Z,16.10
2018-12-12T08:17:59.031Z,14.67
2018-12-12T08:20:27.204Z,17.13
2018-12-12T08:22:56.256Z,18.37
2018-12-12T08:25:24.747Z,13.53
2018-12-12T08:27:52.896Z,13.87
2018-12-12T08:30:21.172Z,13.77
2018-12-12T08:32:49.316Z,15.77
2018-12-12T08:35:17.673Z,17.80
2018-12-12T08:37:45.909Z,14.47
2018-12-12T08:40:14.061Z,17.10
2018-12-12T08:42:42.172Z,14.07
2018-12-12T08:45:10.311Z,14.77
2018-12-12T08:47:38.505Z,14.70
2018-12-12T08:50:08.046Z,14.90
2018-12-12T08:52:36.244Z,15.20
2018-12-12T08:55:05.033Z,16.30
2018-12-12T08:57:33.218Z,16.03
2018-12-12T09:00:01.463Z,15.43
2018-12-12T09:02:29.755Z,14.77
2018-12-12T09:04:57.975Z,16.67
2018-12-12T09:07:26.111Z,14.63
2018-12-12T09:09:54.413Z,16.70
2018-12-12T09:12:22.638Z,15.07
2018-12-12T09:14:50.839Z,15.70
2018-12-12T09:17:19.059Z,16.87
2018-12-12T09:19:47.316Z,12.87
2018-12-12T09:22:15.496Z,17.07
2018-12-12T09:24:43.695Z,14.63
2018-12-12T09:27:11.845Z,19.40
2018-12-12T09:29:40.080Z,14.93
2018-12-12T09:32:08.212Z,14.17
2018-12-12T09:34:36.348Z,14.33
2018-12-12T09:37:04.539Z,12.33
2018-12-12T09:39:32.735Z,15.13
2018-12-12T09:42:00.979Z,11.83
2018-12-12T09:44:29.206Z,15.23
2018-12-12T09:46:57.511Z,13.70
2018-12-12T09:49:25.635Z,12.20
2018-12-12T09:51:53.759Z,13.43
2018-12-12T09:54:21.892Z,13.97
2018-12-12T09:56:50.076Z,13.13
2018-12-12T09:59:18.298Z,12.60
2018-12-12T10:01:46.416Z,11.90
2018-12-12T10:04:14.548Z,15.03
2018-12-12T10:06:42.695Z,12.70
2018-12-12T10:09:10.808Z,11.07
2018-12-12T10:11:38.935Z,13.30
2018-12-12T10:14:07.143Z,13.30
2018-12-12T10:16:35.383Z,12.63
2018-12-12T10:19:03.591Z,11.57
2018-12-12T10:21:31.726Z,10.57
2018-12-12T10:23:59.852Z,15.23
2018-12-12T10:26:27.989Z,12.43
2018-12-12T10:28:56.671Z,16.47
2018-12-12T10:31:24.961Z,12.03
2018-12-12T10:33:53.083Z,15.00
2018-12-12T10:36:21.217Z,14.87
2018-12-12T10:38:49.426Z,11.77
2018-12-12T10:41:17.572Z,9.90
2018-12-12T10:43:45.695Z,12.57
2018-12-12T10:46:13.811Z,13.50
2018-12-12T10:48:42.189Z,12.23
2018-12-12T10:51:10.396Z,11.53
2018-12-12T10:53:38.516Z,11.53
2018-12-12T10:56:06.718Z,11.97
2018-12-12T10:58:34.869Z,11.10
2018-12-12T11:01:08.600Z,10.37
2018-12-12T11:03:44.335Z,10.13
2018-12-12T11:06:12.904Z,14.23
2018-12-12T11:08:41.116Z,12.90
2018-12-12T11:11:09.356Z,11.10
2018-12-12T11:13:37.507Z,11.70
2018-12-12T11:16:05.980Z,12.77
2018-12-12T11:18:34.291Z,12.17
2018-12-12T11:21:02.416Z,12.30
2018-12-12T11:23:30.547Z,14.57
2018-12-12T11:25:58.685Z,11.30
2018-12-12T11:28:26.819Z,13.90
2018-12-12T11:30:55.148Z,10.83
2018-12-12T11:33:23.359Z,12.90
2018-12-12T11:35:51.521Z,13.77
2018-12-12T11:38:19.652Z,12.77
2018-12-12T11:40:47.957Z,12.23
2018-12-12T11:43:23.988Z,11.33
2018-12-12T11:45:52.224Z,13.17
2018-12-12T11:48:20.354Z,12.43
2018-12-12T11:50:48.477Z,11.50
2018-12-12T11:53:16.640Z,10.80
2018-12-12T11:55:44.894Z,11.30
2018-12-12T11:58:13.044Z,12.90
2018-12-12T12:00:41.261Z,18.97
2018-12-12T12:03:09.408Z,17.30
2018-12-12T12:05:37.527Z,18.40
2018-12-12T12:08:05.832Z,16.63
2018-12-12T12:10:34.020Z,15.43
2018-12-12T12:13:02.148Z,16.03
2018-12-12T12:15:30.266Z,16.33
2018-12-12T12:17:58.395Z,16.83
2018-12-12T12:20:26.515Z,14.23
2018-12-12T12:22:54.652Z,17.87
2018-12-12T12:25:22.847Z,15.13
2018-12-12T12:27:51.065Z,14.60
2018-12-12T12:30:19.196Z,16.33
2018-12-12T12:32:47.327Z,22.83
2018-12-12T12:35:15.575Z,19.30
2018-12-12T12:37:43.798Z,20.13
2018-12-12T12:40:12.005Z,17.97
2018-12-12T12:42:40.193Z,17.37
2018-12-12T12:45:08.552Z,19.77
2018-12-12T12:47:37.509Z,19.10
2018-12-12T12:50:06.141Z,17.17
2018-12-12T12:52:34.430Z,18.63
2018-12-12T12:55:02.624Z,19.03
2018-12-12T12:57:30.772Z,19.27
2018-12-12T12:59:58.881Z,18.07
2018-12-12T13:02:27.151Z,20.13
2018-12-12T13:04:55.304Z,19.63
2018-12-12T13:07:23.579Z,19.27
2018-12-12T13:09:51.777Z,17.30
2018-12-12T13:12:20.162Z,20.20
2018-12-12T13:14:48.539Z,18.20
2018-12-12T13:17:17.072Z,22.53
2018-12-12T13:19:45.310Z,17.13
2018-12-12T13:22:14.532Z,17.57
2018-12-12T13:24:42.745Z,18.80
2018-12-12T13:27:11.032Z,18.17
2018-12-12T13:29:39.164Z,20.07
2018-12-12T13:32:07.328Z,18.60
2018-12-12T13:34:35.449Z,17.17
2018-12-12T13:37:03.677Z,18.63
2018-12-12T13:39:31.942Z,17.67
2018-12-12T13:42:00.102Z,19.93
2018-12-12T13:44:28.356Z,23.20
2018-12-12T13:46:57.027Z,18.87
2018-12-12T13:49:25.840Z,20.47
2018-12-12T13:51:54.148Z,19.37
2018-12-12T13:54:22.356Z,18.97
2018-12-12T13:56:50.879Z,20.20
2018-12-12T13:59:19.149Z,18.83
2018-12-12T14:01:47.363Z,19.00
2018-12-12T14:04:15.511Z,20.53
2018-12-12T14:06:43.659Z,18.83
2018-12-12T14:09:12.195Z,16.20
2018-12-12T14:11:41.837Z,17.23
2018-12-12T14:14:10.166Z,20.13
2018-12-12T14:16:38.565Z,17.70
2018-12-12T14:19:06.784Z,20.17
2018-12-12T14:21:35.008Z,18.57
2018-12-12T14:24:03.315Z,17.63
2018-12-12T14:26:31.505Z,18.77
2018-12-12T14:29:00.480Z,18.07
2018-12-12T14:31:28.607Z,18.10
2018-12-12T14:33:56.729Z,18.73
2018-12-12T14:36:25.216Z,19.37
2018-12-12T14:38:53.606Z,21.30
2018-12-12T14:41:21.783Z,14.97
2018-12-12T14:43:50.510Z,15.53
2018-12-12T14:46:18.636Z,17.23
2018-12-12T14:48:46.751Z,18.70
2018-12-12T14:51:15.029Z,16.07
2018-12-12T14:53:43.331Z,17.10
2018-12-12T14:56:11.521Z,20.63
2018-12-12T14:58:39.739Z,18.77
2018-12-12T15:01:08.068Z,17.03
2018-12-12T15:03:36.302Z,15.83
2018-12-12T15:06:04.649Z,17.60
2018-12-12T15:08:32.904Z,20.03
2018-12-12T15:11:01.073Z,19.30
2018-12-12T15:13:29.351Z,18.57
2018-12-12T15:15:57.609Z,20.40
2018-12-12T15:18:25.832Z,19.67
2018-12-12T15:20:54.152Z,20.13
2018-12-12T15:23:22.312Z,18.67
2018-12-12T15:25:50.571Z,18.47
2018-12-12T15:28:18.765Z,19.17
2018-12-12T15:30:46.997Z,20.23
2018-12-12T15:33:15.242Z,18.33
2018-12-12T15:35:43.562Z,20.03
2018-12-12T15:38:11.807Z,23.37
2018-12-12T15:40:39.929Z,20.10
2018-12-12T15:43:08.269Z,19.43
2018-12-12T15:45:36.839Z,22.83
2018-12-12T15:48:05.120Z,20.13
2018-12-12T15:50:33.288Z,22.00
2018-12-12T15:53:01.452Z,21.73
2018-12-12T15:55:29.703Z,23.80
2018-12-12T15:57:57.929Z,20.83
2018-12-12T16:00:28.723Z,19.73
2018-12-12T16:02:57.433Z,22.93
2018-12-12T16:05:25.666Z,20.77
2018-12-12T16:07:53.784Z,22.67
2018-12-12T16:10:21.928Z,20.93
2018-12-12T16:12:50.187Z,21.07
2018-12-12T16:15:18.490Z,22.17
2018-12-12T16:17:46.839Z,20.27
2018-12-12T16:20:14.981Z,19.57
2018-12-12T16:22:43.203Z,22.63
2018-12-12T16:25:11.330Z,20.87
2018-12-12T16:27:39.568Z,20.17
2018-12-12T16:30:08.244Z,21.20
2018-12-12T16:32:36.366Z,21.40
2018-12-12T16:35:04.789Z,22.73
2018-12-12T16:37:32.972Z,19.33
2018-12-12T16:40:01.162Z,20.60
2018-12-12T16:42:29.339Z,22.40
2018-12-12T16:44:57.620Z,24.67
2018-12-12T16:47:25.760Z,21.60
2018-12-12T16:49:53.976Z,20.10
2018-12-12T16:52:22.169Z,21.17
2018-12-12T16:54:50.431Z,20.07
2018-12-12T16:57:18.660Z,22.83
2018-12-12T16:59:46.840Z,20.43
2018-12-12T17:02:15.153Z,18.77
2018-12-12T17:04:43.311Z,18.13
2018-12-12T17:07:11.492Z,18.13
2018-12-12T17:09:39.666Z,18.67
2018-12-12T17:12:08.011Z,17.80
2018-12-12T17:14:36.537Z,22.40
2018-12-12T17:17:04.806Z,21.37
2018-12-12T17:19:33.654Z,19.83
2018-12-12T17:22:02.073Z,20.30
2018-12-12T17:24:30.223Z,21.70
2018-12-12T17:26:58.508Z,24.53
2018-12-12T17:29:26.668Z,19.17
2018-12-12T17:31:54.829Z,19.90
2018-12-12T17:34:23.065Z,20.23
2018-12-12T17:36:51.241Z,19.57
2018-12-12T17:39:19.724Z,19.53
2018-12-12T17:41:47.959Z,20.70
2018-12-12T17:44:16.143Z,18.00
2018-12-12T17:46:44.299Z,18.67
2018-12-12T17:49:12.493Z,18.07
2018-12-12T17:51:41.316Z,17.27
2018-12-12T17:54:09.498Z,19.53
2018-12-12T17:56:37.705Z,23.23
2018-12-12T17:59:05.963Z,20.73
2018-12-12T18:01:34.245Z,19.57
2018-12-12T18:04:02.503Z,19.50
2018-12-12T18:06:30.691Z,18.53
2018-12-12T18:08:58.990Z,31.70
2018-12-12T18:11:27.326Z,20.60
2018-12-12T18:13:55.480Z,21.23
2018-12-12T18:16:23.756Z,17.17
2018-12-12T18:18:52.181Z,22.63
2018-12-12T18:21:20.390Z,20.07
2018-12-12T18:23:48.547Z,19.73
2018-12-12T18:26:16.925Z,20.83
2018-12-12T18:28:45.033Z,20.80
2018-12-12T18:31:14.251Z,20.83
2018-12-12T18:33:42.821Z,20.60
2018-12-12T18:36:11.080Z,19.70
2018-12-12T18:38:39.374Z,21.30
2018-12-12T18:41:07.599Z,22.70
2018-12-12T18:43:35.772Z,21.93
2018-12-12T18:46:04.058Z,24.73
2018-12-12T18:48:32.205Z,23.27
2018-12-12T18:51:00.436Z,21.73
2018-12-12T18:53:28.604Z,23.90
2018-12-12T18:55:56.753Z,21.70
2018-12-12T18:58:24.889Z,22.97
2018-12-12T19:00:53.174Z,20.20
2018-12-12T19:03:21.314Z,20.37
2018-12-12T19:05:49.520Z,19.07
2018-12-12T19:08:17.745Z,20.60
2018-12-12T19:10:46.145Z,17.50
2018-12-12T19:13:14.308Z,18.80
2018-12-12T19:15:44.620Z,19.60
2018-12-12T19:18:12.929Z,17.20
2018-12-12T19:20:41.088Z,18.63
2018-12-12T19:23:09.369Z,15.93
2018-12-12T19:25:39.085Z,16.67
2018-12-12T19:28:28.132Z,15.10
2018-12-12T19:30:56.444Z,17.70
2018-12-12T19:33:25.085Z,16.77
2018-12-12T19:35:53.212Z,16.90
2018-12-12T19:38:21.492Z,16.20
2018-12-12T19:40:50.151Z,17.43
2018-12-12T19:43:18.581Z,15.00
2018-12-12T19:45:46.887Z,15.77
2018-12-12T19:48:15.072Z,19.47
2018-12-12T19:50:43.367Z,17.87
2018-12-12T19:53:11.488Z,21.57
2018-12-12T19:55:39.658Z,19.23
2018-12-12T19:58:07.920Z,19.93
2018-12-12T20:00:36.645Z,18.47
2018-12-12T20:03:04.941Z,20.30
2018-12-12T20:05:33.671Z,18.83
2018-12-12T20:08:01.867Z,14.63
2018-12-12T20:10:30.185Z,15.00
2018-12-12T20:12:58.913Z,13.30
2018-12-12T20:15:32.255Z,16.47
2018-12-12T20:18:00.815Z,12.57
2018-12-12T20:20:28.956Z,11.33
2018-12-12T20:22:57.359Z,11.33
2018-12-12T20:25:25.613Z,10.43
2018-12-12T20:27:53.807Z,10.50
2018-12-12T20:30:22.097Z,9.37
2018-12-12T20:32:50.223Z,9.37
2018-12-12T20:35:18.397Z,9.43
2018-12-12T20:37:46.565Z,8.50
2018-12-12T20:40:14.815Z,9.03
2018-12-12T20:42:42.972Z,8.73
2018-12-12T20:45:11.290Z,7.93
2018-12-12T20:47:39.782Z,11.23
2018-12-12T20:50:08.857Z,13.03
2018-12-12T20:52:37.005Z,7.70
2018-12-12T20:55:05.469Z,8.50
2018-12-12T20:57:33.698Z,9.27
2018-12-12T21:00:01.927Z,7.17
2018-12-12T21:02:30.091Z,8.73
2018-12-12T21:04:58.495Z,7.13
2018-12-12T21:07:26.651Z,10.83
2018-12-12T21:09:54.898Z,8.43
2018-12-12T21:12:23.216Z,7.70
2018-12-12T21:14:51.495Z,7.63
2018-12-12T21:17:19.797Z,7.17
2018-12-12T21:19:47.908Z,8.33
2018-12-12T21:22:16.233Z,7.17
2018-12-12T21:24:44.359Z,7.13
2018-12-12T21:27:12.666Z,6.13
2018-12-12T21:29:41.232Z,6.03
2018-12-12T21:32:09.407Z,7.07
2018-12-12T21:34:37.554Z,7.30
2018-12-12T21:37:05.704Z,7.03
2018-12-12T21:39:33.901Z,7.17
2018-12-12T21:42:02.081Z,6.37
2018-12-12T21:44:30.267Z,7.03
2018-12-12T21:46:58.486Z,7.73
2018-12-12T21:49:26.708Z,7.33
2018-12-12T21:51:54.913Z,6.53
2018-12-12T21:54:23.065Z,6.10
2018-12-12T21:56:51.380Z,6.47
2018-12-12T21:59:19.574Z,7.00
2018-12-12T22:01:47.757Z,7.40
2018-12-12T22:07:46.774Z,8.07
2018-12-12T22:10:15.102Z,7.60
2018-12-12T22:12:43.325Z,7.20
2018-12-12T22:15:11.501Z,8.70
2018-12-12T22:17:39.701Z,6.90
2018-12-12T22:20:07.987Z,6.67
2018-12-12T22:22:36.247Z,6.43
2018-12-12T22:25:04.729Z,7.30
2018-12-12T22:27:32.949Z,6.30
2018-12-12T22:30:01.129Z,6.53
2018-12-12T22:32:29.310Z,7.30
2018-12-12T22:34:57.476Z,8.90
2018-12-12T22:37:25.708Z,7.73
2018-12-12T22:39:53.900Z,6.57
2018-12-12T22:42:22.088Z,7.97
2018-12-12T22:44:50.227Z,7.53
2018-12-12T22:47:18.443Z,7.93
2018-12-12T22:49:46.680Z,8.60
2018-12-12T22:52:14.853Z,9.67
2018-12-12T22:54:43.168Z,9.50
2018-12-12T22:57:11.363Z,9.20
2018-12-12T22:59:39.544Z,8.37
2018-12-12T23:02:07.762Z,8.83
2018-12-12T23:04:35.912Z,10.47
2018-12-12T23:07:04.130Z,9.33
2018-12-12T23:09:32.350Z,10.17
2018-12-12T23:12:00.643Z,9.97
2018-12-12T23:14:28.820Z,9.03
2018-12-12T23:16:57.187Z,11.13
2018-12-12T23:19:25.391Z,10.87
2018-12-12T23:21:53.617Z,10.53
2018-12-12T23:24:25.066Z,9.10
2018-12-12T23:26:52.046Z,9.37
2018-12-12T23:29:20.220Z,10.13
2018-12-12T23:31:48.389Z,11.00
2018-12-12T23:34:16.547Z,10.27
2018-12-12T23:36:44.697Z,11.90
2018-12-12T23:39:12.927Z,10.37
2018-12-12T23:41:41.080Z,9.63
2018-12-12T23:44:09.248Z,11.50
2018-12-12T23:46:37.425Z,9.97
2018-12-12T23:49:05.673Z,10.23
2018-12-12T23:51:33.816Z,11.03
2018-12-12T23:54:01.991Z,11.97
2018-12-12T23:56:30.141Z,10.27
2018-12-12T23:58:58.301Z,10.57
